createdAt,value
2019-03-21T00:01:53.807Z,96.23
2019-03-21T00:04:27.693Z,92.23
2019-03-21T00:07:01.391Z,106.30
2019-03-21T00:10:14.809Z,96.23
2019-03-21T00:12:48.636Z,86.70
2019-03-21T00:15:26.453Z,95.17
2019-03-21T00:18:11.803Z,87.50
2019-03-21T00:20:45.615Z,92.03
2019-03-21T00:23:19.369Z,88.30
2019-03-21T00:25:53.093Z,87.77
2019-03-21T00:28:36.663Z,93.30
2019-03-21T00:31:27.001Z,89.07
2019-03-21T00:34:01.193Z,95.20
2019-03-21T00:36:35.767Z,91.87
2019-03-21T00:39:10.435Z,84.30
2019-03-21T00:41:53.471Z,90.00
2019-03-21T00:44:36.701Z,83.57
2019-03-21T00:47:10.640Z,85.07
2019-03-21T00:49:45.288Z,82.30
2019-03-21T00:52:34.207Z,86.00
2019-03-21T00:55:17.051Z,83.60
2019-03-21T00:58:00.413Z,87.10
2019-03-21T01:00:37.586Z,87.87
2019-03-21T01:03:12.394Z,88.20
2019-03-21T01:05:47.706Z,84.53
2019-03-21T01:08:22.667Z,83.40
2019-03-21T01:10:56.772Z,86.93
2019-03-21T01:13:32.941Z,86.07
2019-03-21T01:16:06.727Z,88.63
2019-03-21T01:18:40.791Z,88.17
2019-03-21T01:21:14.971Z,94.33
2019-03-21T01:23:58.324Z,83.60
2019-03-21T01:26:33.111Z,85.63
2019-03-21T01:29:15.691Z,87.40
2019-03-21T01:31:58.497Z,86.27
2019-03-21T01:34:32.187Z,88.77
2019-03-21T01:37:16.160Z,91.27
2019-03-21T01:39:50.965Z,88.30
2019-03-21T01:42:25.295Z,84.83
2019-03-21T01:44:59.310Z,90.87
2019-03-21T01:47:43.239Z,87.80
2019-03-21T01:50:17.764Z,90.90
2019-03-21T01:52:51.731Z,89.20
2019-03-21T01:55:25.050Z,84.83
2019-03-21T01:57:59.195Z,89.00
2019-03-21T02:00:35.235Z,90.90
2019-03-21T02:03:09.261Z,84.30
2019-03-21T02:05:43.691Z,92.50
2019-03-21T02:08:27.205Z,98.47
2019-03-21T02:11:03.252Z,93.53
2019-03-21T02:13:46.815Z,93.37
2019-03-21T02:16:20.997Z,96.60
2019-03-21T02:18:54.726Z,91.33
2019-03-21T02:21:40.267Z,96.43
2019-03-21T02:24:15.143Z,88.97
2019-03-21T02:26:48.819Z,94.47
2019-03-21T02:29:23.254Z,90.97
2019-03-21T02:32:06.103Z,94.57
2019-03-21T02:34:50.950Z,88.80
2019-03-21T02:37:34.062Z,92.47
2019-03-21T02:40:10.750Z,100.37
2019-03-21T02:42:45.244Z,88.33
2019-03-21T02:45:19.964Z,91.03
2019-03-21T02:47:54.886Z,93.30
2019-03-21T02:50:31.350Z,94.50
2019-03-21T02:53:06.908Z,93.37
2019-03-21T02:55:41.965Z,93.63
2019-03-21T02:58:16.593Z,98.43
2019-03-21T03:01:00.005Z,94.70
2019-03-21T03:03:35.740Z,92.37
2019-03-21T03:06:09.841Z,92.03
2019-03-21T03:08:53.804Z,94.77
2019-03-21T03:11:27.815Z,98.60
2019-03-21T03:14:10.682Z,96.13
2019-03-21T03:16:53.480Z,99.20
2019-03-21T03:19:27.696Z,94.40
2019-03-21T03:22:01.674Z,96.77
2019-03-21T03:24:36.638Z,99.60
2019-03-21T03:27:11.233Z,93.53
2019-03-21T03:29:45.060Z,97.40
2019-03-21T03:32:33.560Z,96.10
2019-03-21T03:35:17.055Z,94.67
2019-03-21T03:37:52.054Z,100.57
2019-03-21T03:40:30.161Z,101.57
2019-03-21T03:43:19.640Z,101.20
2019-03-21T03:45:54.591Z,94.63
2019-03-21T03:48:28.627Z,99.67
2019-03-21T03:51:02.733Z,101.77
2019-03-21T03:53:37.245Z,95.90
2019-03-21T03:56:11.219Z,97.53
2019-03-21T03:58:46.874Z,97.17
2019-03-21T04:01:30.092Z,97.03
2019-03-21T04:04:05.363Z,96.47
2019-03-21T04:06:49.009Z,97.47
2019-03-21T04:09:23.204Z,96.97
2019-03-21T04:12:06.537Z,94.47
2019-03-21T04:14:41.813Z,91.73
2019-03-21T04:17:16.007Z,98.53
2019-03-21T04:19:50.114Z,95.93
2019-03-21T04:22:33.552Z,97.97
2019-03-21T04:25:08.994Z,95.53
2019-03-21T04:27:43.791Z,103.60
2019-03-21T04:30:18.014Z,104.30
2019-03-21T04:32:51.682Z,94.00
2019-03-21T04:35:26.438Z,99.77
2019-03-21T04:38:00.658Z,96.20
2019-03-21T04:40:34.771Z,96.13
2019-03-21T04:43:18.725Z,91.90
2019-03-21T04:46:02.961Z,98.33
2019-03-21T04:48:28.520Z,97.80
2019-03-21T04:51:02.535Z,99.70
2019-03-21T04:53:36.647Z,99.77
2019-03-21T04:56:20.561Z,94.10
2019-03-21T04:58:56.592Z,95.80
2019-03-21T05:01:30.858Z,106.27
2019-03-21T05:04:05.013Z,94.83
2019-03-21T05:06:48.356Z,102.77
2019-03-21T05:09:22.943Z,96.37
2019-03-21T05:12:12.184Z,98.03
2019-03-21T05:14:55.947Z,106.90
2019-03-21T05:17:31.011Z,103.30
2019-03-21T05:20:05.030Z,106.23
2019-03-21T05:22:48.415Z,99.43
2019-03-21T05:25:22.484Z,97.03
2019-03-21T05:27:56.277Z,106.43
2019-03-21T05:30:33.939Z,100.70
2019-03-21T05:33:18.034Z,102.90
2019-03-21T05:36:02.044Z,97.40
2019-03-21T05:38:36.780Z,99.23
2019-03-21T05:41:11.212Z,103.90
2019-03-21T05:43:51.195Z,108.10
2019-03-21T05:46:27.041Z,99.13
2019-03-21T05:49:11.554Z,107.03
2019-03-21T05:51:45.023Z,100.93
2019-03-21T05:54:21.245Z,105.33
2019-03-21T05:56:54.745Z,95.00
2019-03-21T05:59:28.788Z,104.70
2019-03-21T06:02:11.763Z,103.03
2019-03-21T06:04:55.327Z,94.73
2019-03-21T06:07:43.651Z,92.03
2019-03-21T06:10:18.502Z,91.90
2019-03-21T06:12:52.753Z,87.37
2019-03-21T06:15:37.134Z,81.90
2019-03-21T06:18:58.171Z,87.37
2019-03-21T06:22:04.994Z,92.63
2019-03-21T06:25:00.572Z,93.23
2019-03-21T06:27:34.248Z,88.87
2019-03-21T06:30:10.209Z,92.27
2019-03-21T06:32:44.803Z,91.50
2019-03-21T06:35:25.718Z,84.53
2019-03-21T06:38:09.062Z,91.17
2019-03-21T06:40:42.710Z,95.80
2019-03-21T06:43:16.732Z,91.17
2019-03-21T06:45:50.711Z,86.30
2019-03-21T06:48:24.879Z,85.67
2019-03-21T06:51:07.825Z,89.97
2019-03-21T06:53:41.957Z,86.87
2019-03-21T06:56:15.752Z,86.83
2019-03-21T06:58:49.523Z,83.90
2019-03-21T07:01:23.525Z,88.63
2019-03-21T07:04:07.573Z,85.77
2019-03-21T07:06:50.710Z,86.17
2019-03-21T07:09:33.688Z,85.93
2019-03-21T07:12:16.558Z,84.20
2019-03-21T07:15:00.477Z,83.90
2019-03-21T07:17:35.515Z,90.90
2019-03-21T07:20:09.651Z,79.77
2019-03-21T07:22:43.443Z,84.53
2019-03-21T07:25:17.404Z,79.60
2019-03-21T07:28:00.766Z,75.33
2019-03-21T07:30:34.420Z,68.97
2019-03-21T07:33:09.406Z,61.40
2019-03-21T07:35:52.558Z,59.20
2019-03-21T07:38:26.225Z,58.97
2019-03-21T07:41:10.415Z,56.40
2019-03-21T07:43:44.576Z,50.37
2019-03-21T07:46:18.307Z,52.13
2019-03-21T07:48:52.624Z,51.30
2019-03-21T07:51:35.461Z,46.57
2019-03-21T07:54:18.652Z,47.50
2019-03-21T07:56:52.316Z,41.13
2019-03-21T07:59:26.459Z,40.67
2019-03-21T08:02:00.741Z,43.23
2019-03-21T08:04:43.901Z,39.37
2019-03-21T08:07:17.948Z,34.07
2019-03-21T08:09:52.779Z,38.10
2019-03-21T08:12:26.419Z,35.23
2019-03-21T08:15:00.564Z,36.57
2019-03-21T08:17:35.264Z,38.03
2019-03-21T08:20:09.713Z,40.40
2019-03-21T08:22:59.196Z,41.37
2019-03-21T08:25:32.951Z,40.00
2019-03-21T08:28:06.516Z,39.77
2019-03-21T08:31:16.950Z,37.93
2019-03-21T08:33:51.043Z,35.37
2019-03-21T08:36:26.179Z,33.73
2019-03-21T08:38:59.237Z,36.97
2019-03-21T08:41:32.957Z,34.27
2019-03-21T08:44:07.044Z,37.80
2019-03-21T08:46:40.867Z,39.83
2019-03-21T08:49:15.743Z,37.93
2019-03-21T08:51:49.689Z,38.63
2019-03-21T08:54:39.079Z,40.83
2019-03-21T08:57:13.107Z,46.13
2019-03-21T08:59:48.046Z,36.17
2019-03-21T09:02:21.724Z,39.97
2019-03-21T09:04:55.841Z,33.60
2019-03-21T09:07:29.455Z,41.13
2019-03-21T09:10:03.422Z,40.50
2019-03-21T09:12:51.103Z,40.10
2019-03-21T09:15:31.216Z,34.77
2019-03-21T09:18:06.036Z,37.60
2019-03-21T09:20:39.797Z,33.73
2019-03-21T09:23:28.607Z,38.53
2019-03-21T09:26:03.045Z,38.13
2019-03-21T09:28:38.368Z,44.90
2019-03-21T09:31:12.558Z,40.20
2019-03-21T09:33:46.413Z,44.70
2019-03-21T09:36:29.825Z,45.10
2019-03-21T09:39:05.778Z,49.40
2019-03-21T09:41:39.461Z,41.57
2019-03-21T09:44:13.320Z,46.97
2019-03-21T09:46:56.666Z,50.07
2019-03-21T09:49:31.150Z,48.20
2019-03-21T09:52:14.721Z,45.43
2019-03-21T09:54:48.649Z,49.00
2019-03-21T09:57:23.324Z,46.57
2019-03-21T09:59:57.337Z,42.57
2019-03-21T10:02:31.381Z,45.70
2019-03-21T10:05:16.161Z,47.30
2019-03-21T10:07:59.775Z,48.57
2019-03-21T10:10:43.319Z,44.23
2019-03-21T10:13:17.009Z,44.27
2019-03-21T10:16:00.197Z,45.63
2019-03-21T10:18:50.096Z,46.73
2019-03-21T10:21:24.375Z,51.47
2019-03-21T10:23:58.447Z,51.33
2019-03-21T10:26:32.425Z,52.87
2019-03-21T10:29:07.066Z,50.27
2019-03-21T10:31:41.160Z,50.90
2019-03-21T10:34:14.831Z,50.10
2019-03-21T10:36:48.505Z,52.10
2019-03-21T10:39:22.538Z,51.20
2019-03-21T10:42:05.501Z,49.57
2019-03-21T10:44:51.233Z,49.87
2019-03-21T10:47:34.692Z,51.77
2019-03-21T10:50:08.449Z,49.23
2019-03-21T10:52:42.550Z,47.63
2019-03-21T10:55:16.209Z,46.00
2019-03-21T10:57:50.199Z,50.27
2019-03-21T11:00:33.103Z,48.20
2019-03-21T11:03:17.823Z,49.97
2019-03-21T11:05:51.863Z,47.43
2019-03-21T11:08:25.893Z,49.93
2019-03-21T11:11:00.692Z,49.33
2019-03-21T11:13:35.874Z,53.60
2019-03-21T11:16:09.725Z,51.63
2019-03-21T11:18:43.775Z,51.10
2019-03-21T11:21:30.446Z,61.53
2019-03-21T11:24:05.379Z,53.73
2019-03-21T11:27:35.233Z,57.93
2019-03-21T11:30:15.924Z,55.27
2019-03-21T11:32:45.938Z,53.27
2019-03-21T11:35:21.787Z,56.67
2019-03-21T11:37:54.369Z,57.50
2019-03-21T11:40:30.997Z,56.30
2019-03-21T11:43:05.495Z,50.40
2019-03-21T11:45:48.894Z,52.90
2019-03-21T11:48:24.526Z,53.30
2019-03-21T11:50:58.555Z,55.50
2019-03-21T11:53:35.059Z,53.13
2019-03-21T11:56:18.715Z,53.83
2019-03-21T11:59:02.797Z,54.67
2019-03-21T12:01:38.692Z,53.37
2019-03-21T12:04:21.960Z,56.53
2019-03-21T12:06:57.321Z,61.13
2019-03-21T12:09:31.761Z,60.40
2019-03-21T12:12:14.449Z,58.33
2019-03-21T12:15:03.926Z,58.13
2019-03-21T12:17:37.932Z,56.77
2019-03-21T12:20:12.516Z,63.80
2019-03-21T12:22:48.547Z,61.87
2019-03-21T12:25:22.268Z,63.53
2019-03-21T12:27:56.825Z,58.83
2019-03-21T12:30:32.750Z,65.80
2019-03-21T12:33:07.748Z,59.93
2019-03-21T12:35:41.600Z,62.03
2019-03-21T12:38:15.300Z,60.47
2019-03-21T12:40:58.168Z,61.30
2019-03-21T12:43:40.968Z,59.67
2019-03-21T12:46:14.431Z,62.90
2019-03-21T12:48:49.566Z,58.13
2019-03-21T12:51:23.721Z,64.07
2019-03-21T12:54:16.366Z,58.07
2019-03-21T12:56:53.240Z,60.53
2019-03-21T12:59:36.913Z,61.53
2019-03-21T13:02:11.528Z,58.63
2019-03-21T13:04:54.179Z,57.37
2019-03-21T13:07:39.315Z,53.40
2019-03-21T13:10:13.775Z,53.37
2019-03-21T13:12:56.590Z,56.70
2019-03-21T13:15:44.282Z,53.63
2019-03-21T13:18:27.068Z,56.70
2019-03-21T13:21:00.828Z,53.40
2019-03-21T13:23:47.973Z,53.93
2019-03-21T13:26:31.721Z,55.80
2019-03-21T13:29:06.487Z,51.93
2019-03-21T13:31:40.877Z,48.87
2019-03-21T13:34:27.910Z,49.33
2019-03-21T13:37:02.955Z,51.17
2019-03-21T13:39:36.963Z,55.07
2019-03-21T13:42:11.294Z,52.37
2019-03-21T13:44:54.291Z,51.37
2019-03-21T13:47:37.006Z,51.40
2019-03-21T13:50:19.724Z,55.50
2019-03-21T13:53:05.132Z,55.37
2019-03-21T13:55:39.578Z,59.27
2019-03-21T13:58:24.089Z,51.27
2019-03-21T14:00:58.139Z,53.97
2019-03-21T14:03:41.453Z,52.50
2019-03-21T14:06:38.448Z,59.40
2019-03-21T14:09:12.962Z,55.23
2019-03-21T14:11:47.263Z,56.40
2019-03-21T14:14:21.762Z,55.73
2019-03-21T14:16:56.770Z,53.67
2019-03-21T14:19:31.289Z,53.87
2019-03-21T14:22:05.341Z,57.43
2019-03-21T14:24:48.210Z,56.10
2019-03-21T14:27:31.798Z,59.23
2019-03-21T14:30:06.348Z,61.13
2019-03-21T14:32:48.673Z,56.27
2019-03-21T14:35:32.719Z,57.43
2019-03-21T14:38:06.804Z,56.73
2019-03-21T14:40:56.810Z,59.90
2019-03-21T14:43:30.883Z,58.30
2019-03-21T14:46:07.397Z,58.80
2019-03-21T14:48:41.085Z,56.93
2019-03-21T14:51:15.114Z,59.23
2019-03-21T14:53:57.881Z,57.27
2019-03-21T14:56:41.242Z,56.03
2019-03-21T14:59:17.134Z,59.07
2019-03-21T15:01:52.040Z,56.80
2019-03-21T15:04:27.833Z,53.87
2019-03-21T15:07:10.945Z,54.90
2019-03-21T15:09:56.488Z,52.57
2019-03-21T15:12:39.729Z,56.17
2019-03-21T15:15:22.869Z,52.27
2019-03-21T15:17:58.570Z,54.63
2019-03-21T15:20:32.150Z,54.10
2019-03-21T15:23:05.829Z,56.07
2019-03-21T15:25:41.716Z,56.50
2019-03-21T15:28:25.794Z,57.30
2019-03-21T15:30:59.532Z,52.93
2019-03-21T15:33:34.638Z,55.20
2019-03-21T15:36:21.396Z,51.47
2019-03-21T15:38:55.760Z,53.17
2019-03-21T15:41:30.153Z,51.67
2019-03-21T15:44:05.027Z,52.90
2019-03-21T15:46:40.819Z,54.63
2019-03-21T15:49:23.996Z,54.60
2019-03-21T15:51:57.735Z,51.90
2019-03-21T15:54:32.616Z,53.17
2019-03-21T15:57:16.173Z,60.47
2019-03-21T15:59:52.430Z,56.33
2019-03-21T16:02:25.707Z,54.77
2019-03-21T16:05:09.838Z,55.20
2019-03-21T16:07:44.236Z,56.03
2019-03-21T16:10:18.601Z,57.87
2019-03-21T16:12:52.612Z,52.67
2019-03-21T16:15:35.403Z,51.17
2019-03-21T16:18:20.840Z,51.77
2019-03-21T16:21:09.283Z,56.93
2019-03-21T16:24:04.545Z,56.63
2019-03-21T16:26:29.857Z,55.87
2019-03-21T16:29:04.182Z,56.27
2019-03-21T16:31:47.396Z,63.87
2019-03-21T16:34:21.523Z,53.90
2019-03-21T16:36:56.438Z,55.73
2019-03-21T16:39:31.659Z,56.20
2019-03-21T16:42:05.440Z,56.57
2019-03-21T16:44:42.684Z,59.47
2019-03-21T16:47:26.059Z,54.87
2019-03-21T16:50:00.359Z,58.10
2019-03-21T16:52:34.728Z,62.43
2019-03-21T16:55:17.058Z,62.27
2019-03-21T16:57:51.124Z,58.17
2019-03-21T17:00:34.171Z,60.17
2019-03-21T17:03:08.695Z,58.17
2019-03-21T17:05:51.693Z,62.00
2019-03-21T17:08:34.582Z,62.80
2019-03-21T17:11:23.299Z,65.20
2019-03-21T17:14:06.142Z,63.93
2019-03-21T17:16:39.899Z,61.17
2019-03-21T17:19:23.084Z,60.43
2019-03-21T17:22:05.785Z,60.43
2019-03-21T17:24:48.302Z,61.33
2019-03-21T17:27:31.676Z,59.03
2019-03-21T17:30:14.458Z,63.77
2019-03-21T17:32:57.207Z,60.70
2019-03-21T17:35:40.395Z,58.60
2019-03-21T17:38:14.183Z,62.50
2019-03-21T17:40:47.962Z,58.93
2019-03-21T17:43:21.953Z,61.20
2019-03-21T17:45:55.707Z,63.80
2019-03-21T17:48:39.579Z,64.13
2019-03-21T17:51:13.555Z,64.40
2019-03-21T17:53:47.388Z,58.83
2019-03-21T17:56:32.246Z,57.87
2019-03-21T17:59:14.611Z,57.23
2019-03-21T18:01:48.259Z,57.37
2019-03-21T18:04:35.753Z,54.60
2019-03-21T18:07:09.380Z,57.63
2019-03-21T18:09:43.756Z,55.77
2019-03-21T18:12:18.113Z,48.57
2019-03-21T18:14:52.290Z,50.57
2019-03-21T18:17:41.340Z,54.57
2019-03-21T18:20:15.446Z,55.63
2019-03-21T18:22:51.937Z,59.87
2019-03-21T18:25:25.898Z,51.27
2019-03-21T18:28:01.024Z,52.23
2019-03-21T18:30:36.008Z,61.47
2019-03-21T18:33:10.965Z,55.07
2019-03-21T18:35:44.656Z,52.33
2019-03-21T18:38:18.393Z,51.87
2019-03-21T18:40:52.216Z,54.57
2019-03-21T18:43:25.908Z,55.63
2019-03-21T18:46:00.387Z,54.77
2019-03-21T18:48:49.760Z,51.27
2019-03-21T18:51:23.977Z,49.27
2019-03-21T18:54:07.149Z,54.63
2019-03-21T18:56:50.113Z,56.40
2019-03-21T18:59:33.559Z,55.30
2019-03-21T19:02:07.605Z,54.10
2019-03-21T19:04:43.046Z,55.63
2019-03-21T19:07:25.788Z,53.73
2019-03-21T19:10:00.470Z,51.50
2019-03-21T19:12:33.968Z,54.17
2019-03-21T19:15:09.765Z,57.63
2019-03-21T19:17:44.265Z,56.47
2019-03-21T19:20:19.014Z,58.40
2019-03-21T19:23:02.160Z,56.07
2019-03-21T19:25:36.407Z,53.87
2019-03-21T19:28:10.444Z,57.40
2019-03-21T19:30:53.432Z,56.60
2019-03-21T19:33:37.223Z,55.87
2019-03-21T19:36:11.315Z,59.77
2019-03-21T19:38:46.393Z,58.33
2019-03-21T19:41:21.265Z,60.83
2019-03-21T19:43:55.606Z,62.83
2019-03-21T19:46:38.724Z,56.63
2019-03-21T19:49:12.714Z,65.77
2019-03-21T19:51:46.772Z,61.40
2019-03-21T19:54:21.785Z,64.27
2019-03-21T19:56:56.250Z,64.93
2019-03-21T19:59:30.098Z,58.40
2019-03-21T20:02:04.373Z,59.27
2019-03-21T20:04:38.157Z,61.07
2019-03-21T20:07:21.659Z,60.67
2019-03-21T20:09:56.478Z,65.50
2019-03-21T20:12:39.419Z,61.80
2019-03-21T20:15:28.442Z,62.10
2019-03-21T20:18:11.895Z,60.93
2019-03-21T20:20:46.260Z,62.47
2019-03-21T20:23:29.618Z,59.50
2019-03-21T20:26:03.473Z,64.57
2019-03-21T20:28:37.920Z,60.77
2019-03-21T20:31:21.248Z,58.23
2019-03-21T20:33:55.193Z,64.00
2019-03-21T20:36:29.441Z,65.93
2019-03-21T20:39:14.289Z,61.77
2019-03-21T20:41:59.383Z,63.07
2019-03-21T20:44:35.594Z,58.53
2019-03-21T20:47:25.718Z,63.93
2019-03-21T20:50:09.223Z,62.27
2019-03-21T20:52:43.228Z,66.70
2019-03-21T20:55:17.268Z,66.30
2019-03-21T20:58:02.436Z,64.23
2019-03-21T21:00:36.821Z,65.47
2019-03-21T21:03:11.716Z,65.77
2019-03-21T21:05:46.172Z,59.67
2019-03-21T21:08:29.307Z,62.47
2019-03-21T21:11:08.479Z,68.70
2019-03-21T21:13:44.114Z,64.87
2019-03-21T21:16:31.030Z,69.50
2019-03-21T21:19:05.864Z,60.00
2019-03-21T21:21:38.440Z,64.10
2019-03-21T21:24:29.948Z,63.13
2019-03-21T21:27:05.192Z,70.60
2019-03-21T21:29:39.142Z,70.23
2019-03-21T21:32:14.286Z,67.93
2019-03-21T21:34:48.674Z,65.40
2019-03-21T21:37:32.264Z,65.17
2019-03-21T21:40:08.920Z,70.33
2019-03-21T21:42:42.921Z,67.77
2019-03-21T21:45:18.775Z,63.77
2019-03-21T21:48:01.624Z,65.10
2019-03-21T21:50:44.277Z,65.63
2019-03-21T21:53:27.764Z,66.80
2019-03-21T21:56:03.878Z,70.53
2019-03-21T21:58:47.383Z,66.03
2019-03-21T22:01:22.526Z,63.90
2019-03-21T22:04:04.641Z,66.23
2019-03-21T22:06:33.526Z,64.43
2019-03-21T22:09:09.977Z,63.23
2019-03-21T22:11:44.027Z,63.13
2019-03-21T22:14:21.001Z,71.47
2019-03-21T22:17:04.491Z,65.43
2019-03-21T22:19:42.499Z,67.80
2019-03-21T22:22:19.405Z,66.77
2019-03-21T22:24:54.377Z,65.50
2019-03-21T22:27:37.572Z,67.10
2019-03-21T22:30:12.508Z,72.03
2019-03-21T22:32:55.400Z,62.83
2019-03-21T22:35:38.506Z,66.23
2019-03-21T22:38:12.997Z,65.57
2019-03-21T22:40:47.014Z,66.43
2019-03-21T22:43:30.043Z,67.53
2019-03-21T22:46:04.491Z,69.87
2019-03-21T22:48:39.026Z,67.63
2019-03-21T22:51:13.997Z,71.93
2019-03-21T22:53:57.053Z,62.93
2019-03-21T22:56:40.999Z,63.40
2019-03-21T22:59:10.702Z,68.60
2019-03-21T23:01:45.739Z,69.63
2019-03-21T23:04:19.606Z,71.57
2019-03-21T23:07:03.574Z,70.53
2019-03-21T23:09:39.037Z,66.03
2019-03-21T23:12:12.839Z,68.43
2019-03-21T23:14:46.949Z,75.77
2019-03-21T23:17:20.716Z,66.23
2019-03-21T23:19:54.657Z,68.97
2019-03-21T23:22:38.018Z,65.20
2019-03-21T23:25:13.158Z,70.67
2019-03-21T23:27:47.212Z,64.33
2019-03-21T23:30:21.189Z,65.87
2019-03-21T23:32:55.368Z,69.87
2019-03-21T23:39:09.479Z,67.50
2019-03-21T23:41:44.223Z,76.53
2019-03-21T23:44:19.009Z,64.77
2019-03-21T23:47:01.915Z,67.33
2019-03-21T23:49:44.929Z,71.50
2019-03-21T23:52:18.963Z,69.43
2019-03-21T23:54:54.159Z,70.67
2019-03-21T23:57:28.398Z,74.20
